sensor_id;sensor_type;location;lat;lon;timestamp;temperature;humidity
506;DHT22;551;48.524;9.056;2022-12-07T00:01:34;5.30;1.00
506;DHT22;551;48.524;9.056;2022-12-07T00:04:03;5.20;1.00
506;DHT22;551;48.524;9.056;2022-12-07T00:06:42;5.30;1.00
506;DHT22;551;48.524;9.056;2022-12-07T00:09:16;5.20;1.00
506;DHT22;551;48.524;9.056;2022-12-07T00:11:43;5.20;1.00
506;DHT22;551;48.524;9.056;2022-12-07T00:14:14;5.20;1.00
506;DHT22;551;48.524;9.056;2022-12-07T00:16:40;5.20;1.00
506;DHT22;551;48.524;9.056;2022-12-07T00:19:05;5.20;1.00
506;DHT22;551;48.524;9.056;2022-12-07T00:21:35;5.20;1.00
506;DHT22;551;48.524;9.056;2022-12-07T00:24:02;5.20;1.00
506;DHT22;551;48.524;9.056;2022-12-07T00:26:34;5.20;1.00
506;DHT22;551;48.524;9.056;2022-12-07T00:29:03;5.20;1.00
506;DHT22;551;48.524;9.056;2022-12-07T00:31:32;5.20;1.00
506;DHT22;551;48.524;9.056;2022-12-07T00:33:58;5.20;1.00
506;DHT22;551;48.524;9.056;2022-12-07T00:36:25;5.30;1.00
506;DHT22;551;48.524;9.056;2022-12-07T00:38:51;5.20;1.00
506;DHT22;551;48.524;9.056;2022-12-07T00:41:24;5.20;1.00
506;DHT22;551;48.524;9.056;2022-12-07T00:43:50;5.10;1.00
506;DHT22;551;48.524;9.056;2022-12-07T00:46:17;5.10;1.00
506;DHT22;551;48.524;9.056;2022-12-07T00:48:43;5.10;1.00
506;DHT22;551;48.524;9.056;2022-12-07T00:51:10;5.20;1.00
506;DHT22;551;48.524;9.056;2022-12-07T00:53:37;5.20;1.00
506;DHT22;551;48.524;9.056;2022-12-07T00:56:13;5.10;1.00
506;DHT22;551;48.524;9.056;2022-12-07T00:58:39;5.10;1.00
506;DHT22;551;48.524;9.056;2022-12-07T01:01:06;5.20;1.00
506;DHT22;551;48.524;9.056;2022-12-07T01:03:31;5.20;1.00
506;DHT22;551;48.524;9.056;2022-12-07T01:05:57;5.20;1.00
506;DHT22;551;48.524;9.056;2022-12-07T01:08:24;5.20;1.00
506;DHT22;551;48.524;9.056;2022-12-07T01:11:00;5.20;1.00
506;DHT22;551;48.524;9.056;2022-12-07T01:13:26;5.20;1.00
506;DHT22;551;48.524;9.056;2022-12-07T01:15:57;5.20;1.00
506;DHT22;551;48.524;9.056;2022-12-07T01:18:23;5.20;1.00
506;DHT22;551;48.524;9.056;2022-12-07T01:21:19;5.20;1.00
506;DHT22;551;48.524;9.056;2022-12-07T01:23:46;5.10;1.00
506;DHT22;551;48.524;9.056;2022-12-07T01:26:13;5.10;1.00
506;DHT22;551;48.524;9.056;2022-12-07T01:28:40;5.10;1.00
506;DHT22;551;48.524;9.056;2022-12-07T01:31:14;5.10;1.00
506;DHT22;551;48.524;9.056;2022-12-07T01:33:41;5.10;1.00
506;DHT22;551;48.524;9.056;2022-12-07T01:36:16;5.10;1.00
506;DHT22;551;48.524;9.056;2022-12-07T01:38:42;5.10;1.00
506;DHT22;551;48.524;9.056;2022-12-07T01:41:07;5.10;1.00
506;DHT22;551;48.524;9.056;2022-12-07T01:43:34;5.10;1.00
506;DHT22;551;48.524;9.056;2022-12-07T01:46:00;5.10;1.00
506;DHT22;551;48.524;9.056;2022-12-07T01:48:37;5.10;1.00
506;DHT22;551;48.524;9.056;2022-12-07T01:51:10;5.10;1.00
506;DHT22;551;48.524;9.056;2022-12-07T01:53:41;5.10;1.00
506;DHT22;551;48.524;9.056;2022-12-07T01:56:11;5.10;1.00
506;DHT22;551;48.524;9.056;2022-12-07T01:58:40;5.00;1.00
506;DHT22;551;48.524;9.056;2022-12-07T02:01:06;5.00;1.00
506;DHT22;551;48.524;9.056;2022-12-07T02:03:36;4.90;1.00
506;DHT22;551;48.524;9.056;2022-12-07T02:06:02;4.90;1.00
506;DHT22;551;48.524;9.056;2022-12-07T02:08:29;5.00;1.00
506;DHT22;551;48.524;9.056;2022-12-07T02:10:55;4.90;1.00
506;DHT22;551;48.524;9.056;2022-12-07T02:13:30;5.00;1.00
506;DHT22;551;48.524;9.056;2022-12-07T02:27:14;5.00;1.00
506;DHT22;551;48.524;9.056;2022-12-07T02:30:06;5.00;1.00
506;DHT22;551;48.524;9.056;2022-12-07T02:32:43;5.00;1.00
506;DHT22;551;48.524;9.056;2022-12-07T02:41:26;5.00;1.00
506;DHT22;551;48.524;9.056;2022-12-07T02:43:55;5.00;1.00
506;DHT22;551;48.524;9.056;2022-12-07T02:46:25;5.00;1.00
506;DHT22;551;48.524;9.056;2022-12-07T02:48:51;5.00;1.00
506;DHT22;551;48.524;9.056;2022-12-07T02:51:19;5.00;1.00
506;DHT22;551;48.524;9.056;2022-12-07T02:53:44;5.00;1.00
506;DHT22;551;48.524;9.056;2022-12-07T03:01:48;4.90;1.00
506;DHT22;551;48.524;9.056;2022-12-07T03:04:42;4.80;1.00
506;DHT22;551;48.524;9.056;2022-12-07T03:07:18;4.70;1.00
506;DHT22;551;48.524;9.056;2022-12-07T03:10:02;4.60;1.00
506;DHT22;551;48.524;9.056;2022-12-07T03:12:52;4.60;1.00
506;DHT22;551;48.524;9.056;2022-12-07T03:18:01;4.40;1.00
506;DHT22;551;48.524;9.056;2022-12-07T03:20:29;4.30;1.00
506;DHT22;551;48.524;9.056;2022-12-07T03:22:57;4.30;1.00
506;DHT22;551;48.524;9.056;2022-12-07T03:25:25;4.20;1.00
506;DHT22;551;48.524;9.056;2022-12-07T03:28:04;4.30;1.00
506;DHT22;551;48.524;9.056;2022-12-07T03:31:00;4.20;1.00
506;DHT22;551;48.524;9.056;2022-12-07T03:33:33;4.20;1.00
506;DHT22;551;48.524;9.056;2022-12-07T03:36:25;4.20;1.00
506;DHT22;551;48.524;9.056;2022-12-07T03:39:33;4.30;1.00
506;DHT22;551;48.524;9.056;2022-12-07T03:42:00;4.30;1.00
506;DHT22;551;48.524;9.056;2022-12-07T03:44:28;4.30;1.00
506;DHT22;551;48.524;9.056;2022-12-07T03:47:04;4.30;1.00
506;DHT22;551;48.524;9.056;2022-12-07T03:49:49;4.30;1.00
506;DHT22;551;48.524;9.056;2022-12-07T03:55:03;4.30;1.00
506;DHT22;551;48.524;9.056;2022-12-07T03:57:31;4.30;1.00
506;DHT22;551;48.524;9.056;2022-12-07T03:59:58;4.20;1.00
506;DHT22;551;48.524;9.056;2022-12-07T04:02:27;4.10;1.00
506;DHT22;551;48.524;9.056;2022-12-07T04:04:53;4.20;1.00
506;DHT22;551;48.524;9.056;2022-12-07T04:07:18;4.10;1.00
506;DHT22;551;48.524;9.056;2022-12-07T04:09:44;4.20;1.00
506;DHT22;551;48.524;9.056;2022-12-07T04:12:10;4.10;1.00
506;DHT22;551;48.524;9.056;2022-12-07T04:14:35;4.10;1.00
506;DHT22;551;48.524;9.056;2022-12-07T04:17:01;4.20;1.00
506;DHT22;551;48.524;9.056;2022-12-07T04:19:29;4.20;1.00
506;DHT22;551;48.524;9.056;2022-12-07T04:21:57;4.10;1.00
506;DHT22;551;48.524;9.056;2022-12-07T04:24:23;4.00;1.00
506;DHT22;551;48.524;9.056;2022-12-07T04:26:49;4.00;1.00
506;DHT22;551;48.524;9.056;2022-12-07T04:29:16;4.10;1.00
506;DHT22;551;48.524;9.056;2022-12-07T04:31:41;4.20;1.00
506;DHT22;551;48.524;9.056;2022-12-07T04:34:07;4.30;1.00
506;DHT22;551;48.524;9.056;2022-12-07T04:36:33;4.20;1.00
506;DHT22;551;48.524;9.056;2022-12-07T04:39:00;4.30;1.00
506;DHT22;551;48.524;9.056;2022-12-07T04:41:26;4.30;1.00
506;DHT22;551;48.524;9.056;2022-12-07T04:43:59;4.10;1.00
506;DHT22;551;48.524;9.056;2022-12-07T04:46:25;4.10;1.00
506;DHT22;551;48.524;9.056;2022-12-07T04:48:52;3.90;1.00
506;DHT22;551;48.524;9.056;2022-12-07T04:51:23;4.00;1.00
506;DHT22;551;48.524;9.056;2022-12-07T04:53:50;3.90;1.00
506;DHT22;551;48.524;9.056;2022-12-07T04:56:17;4.00;1.00
506;DHT22;551;48.524;9.056;2022-12-07T04:58:44;4.00;1.00
506;DHT22;551;48.524;9.056;2022-12-07T05:01:09;4.10;1.00
506;DHT22;551;48.524;9.056;2022-12-07T05:03:36;4.10;1.00
506;DHT22;551;48.524;9.056;2022-12-07T05:06:03;4.10;1.00
506;DHT22;551;48.524;9.056;2022-12-07T05:08:28;4.00;1.00
506;DHT22;551;48.524;9.056;2022-12-07T05:10:54;3.90;1.00
506;DHT22;551;48.524;9.056;2022-12-07T05:13:19;3.80;1.00
506;DHT22;551;48.524;9.056;2022-12-07T05:15:47;3.80;1.00
506;DHT22;551;48.524;9.056;2022-12-07T05:18:12;3.80;1.00
506;DHT22;551;48.524;9.056;2022-12-07T05:20:39;3.70;1.00
506;DHT22;551;48.524;9.056;2022-12-07T05:23:05;3.80;1.00
506;DHT22;551;48.524;9.056;2022-12-07T05:25:30;3.70;1.00
506;DHT22;551;48.524;9.056;2022-12-07T05:27:56;3.60;1.00
506;DHT22;551;48.524;9.056;2022-12-07T05:30:23;3.50;1.00
506;DHT22;551;48.524;9.056;2022-12-07T05:32:48;3.40;1.00
506;DHT22;551;48.524;9.056;2022-12-07T05:35:14;3.30;1.00
506;DHT22;551;48.524;9.056;2022-12-07T05:37:40;3.20;1.00
506;DHT22;551;48.524;9.056;2022-12-07T05:40:05;3.20;1.00
506;DHT22;551;48.524;9.056;2022-12-07T05:42:31;3.10;1.00
506;DHT22;551;48.524;9.056;2022-12-07T05:44:57;3.10;1.00
506;DHT22;551;48.524;9.056;2022-12-07T05:47:22;3.00;1.00
506;DHT22;551;48.524;9.056;2022-12-07T05:49:49;3.00;1.00
506;DHT22;551;48.524;9.056;2022-12-07T05:52:15;2.90;1.00
506;DHT22;551;48.524;9.056;2022-12-07T05:54:40;2.90;1.00
506;DHT22;551;48.524;9.056;2022-12-07T05:57:06;2.80;1.00
506;DHT22;551;48.524;9.056;2022-12-07T05:59:31;2.70;1.00
506;DHT22;551;48.524;9.056;2022-12-07T06:02:02;2.70;1.00
506;DHT22;551;48.524;9.056;2022-12-07T06:04:33;2.70;1.00
506;DHT22;551;48.524;9.056;2022-12-07T06:06:59;2.70;1.00
506;DHT22;551;48.524;9.056;2022-12-07T06:09:26;2.60;1.00
506;DHT22;551;48.524;9.056;2022-12-07T06:11:52;2.60;1.00
506;DHT22;551;48.524;9.056;2022-12-07T06:14:37;2.60;1.00
506;DHT22;551;48.524;9.056;2022-12-07T06:17:03;2.60;1.00
506;DHT22;551;48.524;9.056;2022-12-07T06:19:29;2.60;1.00
506;DHT22;551;48.524;9.056;2022-12-07T06:21:54;2.60;1.00
506;DHT22;551;48.524;9.056;2022-12-07T06:24:20;2.50;1.00
506;DHT22;551;48.524;9.056;2022-12-07T06:26:46;2.40;1.00
506;DHT22;551;48.524;9.056;2022-12-07T06:29:12;2.40;1.00
506;DHT22;551;48.524;9.056;2022-12-07T06:31:38;2.30;1.00
506;DHT22;551;48.524;9.056;2022-12-07T06:34:05;2.40;1.00
506;DHT22;551;48.524;9.056;2022-12-07T06:36:31;2.20;1.00
506;DHT22;551;48.524;9.056;2022-12-07T06:38:57;2.20;1.00
506;DHT22;551;48.524;9.056;2022-12-07T06:41:23;2.20;1.00
506;DHT22;551;48.524;9.056;2022-12-07T06:43:49;2.20;1.00
506;DHT22;551;48.524;9.056;2022-12-07T06:46:16;2.20;1.00
506;DHT22;551;48.524;9.056;2022-12-07T06:48:42;2.10;1.00
506;DHT22;551;48.524;9.056;2022-12-07T06:51:08;2.10;1.00
506;DHT22;551;48.524;9.056;2022-12-07T06:53:34;2.10;1.00
506;DHT22;551;48.524;9.056;2022-12-07T06:56:00;2.10;1.00
506;DHT22;551;48.524;9.056;2022-12-07T06:58:25;2.10;1.00
506;DHT22;551;48.524;9.056;2022-12-07T07:00:51;2.10;1.00
506;DHT22;551;48.524;9.056;2022-12-07T07:03:17;2.10;1.00
506;DHT22;551;48.524;9.056;2022-12-07T07:05:43;2.10;1.00
506;DHT22;551;48.524;9.056;2022-12-07T07:08:10;2.00;1.00
506;DHT22;551;48.524;9.056;2022-12-07T07:10:37;2.10;1.00
506;DHT22;551;48.524;9.056;2022-12-07T07:13:03;2.20;1.00
506;DHT22;551;48.524;9.056;2022-12-07T07:15:28;2.20;1.00
506;DHT22;551;48.524;9.056;2022-12-07T07:17:54;2.20;1.00
506;DHT22;551;48.524;9.056;2022-12-07T07:20:19;2.20;1.00
506;DHT22;551;48.524;9.056;2022-12-07T07:22:45;2.30;1.00
506;DHT22;551;48.524;9.056;2022-12-07T07:25:10;2.30;1.00
506;DHT22;551;48.524;9.056;2022-12-07T07:27:36;2.40;1.00
506;DHT22;551;48.524;9.056;2022-12-07T07:30:02;2.40;1.00
506;DHT22;551;48.524;9.056;2022-12-07T07:32:28;2.50;1.00
506;DHT22;551;48.524;9.056;2022-12-07T07:34:54;2.40;1.00
506;DHT22;551;48.524;9.056;2022-12-07T07:37:19;2.50;1.00
506;DHT22;551;48.524;9.056;2022-12-07T07:39:44;2.60;1.00
506;DHT22;551;48.524;9.056;2022-12-07T07:42:10;2.60;1.00
506;DHT22;551;48.524;9.056;2022-12-07T07:44:35;2.60;1.00
506;DHT22;551;48.524;9.056;2022-12-07T07:47:01;2.80;1.00
506;DHT22;551;48.524;9.056;2022-12-07T07:49:27;2.90;1.00
506;DHT22;551;48.524;9.056;2022-12-07T07:51:53;2.90;1.00
506;DHT22;551;48.524;9.056;2022-12-07T07:54:18;3.00;1.00
506;DHT22;551;48.524;9.056;2022-12-07T07:56:44;3.10;1.00
506;DHT22;551;48.524;9.056;2022-12-07T07:59:09;3.10;1.00
506;DHT22;551;48.524;9.056;2022-12-07T08:01:35;3.10;1.00
506;DHT22;551;48.524;9.056;2022-12-07T08:04:00;3.10;1.00
506;DHT22;551;48.524;9.056;2022-12-07T08:06:26;3.30;1.00
506;DHT22;551;48.524;9.056;2022-12-07T08:08:52;3.40;1.00
506;DHT22;551;48.524;9.056;2022-12-07T08:11:17;3.50;1.00
506;DHT22;551;48.524;9.056;2022-12-07T08:13:45;3.50;1.00
506;DHT22;551;48.524;9.056;2022-12-07T08:16:12;3.70;1.00
506;DHT22;551;48.524;9.056;2022-12-07T08:18:39;3.80;1.00
506;DHT22;551;48.524;9.056;2022-12-07T08:21:06;3.80;1.00
506;DHT22;551;48.524;9.056;2022-12-07T08:23:32;3.80;1.00
506;DHT22;551;48.524;9.056;2022-12-07T08:26:03;3.80;1.00
506;DHT22;551;48.524;9.056;2022-12-07T08:28:30;4.10;1.00
506;DHT22;551;48.524;9.056;2022-12-07T08:31:22;4.10;1.00
506;DHT22;551;48.524;9.056;2022-12-07T08:33:48;4.10;1.00
506;DHT22;551;48.524;9.056;2022-12-07T08:36:14;4.10;1.00
506;DHT22;551;48.524;9.056;2022-12-07T08:38:41;4.10;1.00
506;DHT22;551;48.524;9.056;2022-12-07T08:41:07;4.20;1.00
506;DHT22;551;48.524;9.056;2022-12-07T08:43:33;4.30;1.00
506;DHT22;551;48.524;9.056;2022-12-07T08:46:13;4.40;1.00
506;DHT22;551;48.524;9.056;2022-12-07T08:48:46;4.50;1.00
506;DHT22;551;48.524;9.056;2022-12-07T08:51:14;4.70;1.00
506;DHT22;551;48.524;9.056;2022-12-07T08:53:39;4.70;1.00
506;DHT22;551;48.524;9.056;2022-12-07T08:56:06;4.80;1.00
506;DHT22;551;48.524;9.056;2022-12-07T08:58:33;5.00;1.00
506;DHT22;551;48.524;9.056;2022-12-07T09:00:59;5.00;1.00
506;DHT22;551;48.524;9.056;2022-12-07T09:03:24;5.10;1.00
506;DHT22;551;48.524;9.056;2022-12-07T09:05:50;5.00;1.00
506;DHT22;551;48.524;9.056;2022-12-07T09:08:16;5.10;1.00
506;DHT22;551;48.524;9.056;2022-12-07T09:10:41;5.30;1.00
506;DHT22;551;48.524;9.056;2022-12-07T09:13:07;5.30;1.00
506;DHT22;551;48.524;9.056;2022-12-07T09:15:32;5.30;1.00
506;DHT22;551;48.524;9.056;2022-12-07T09:17:58;5.30;1.00
506;DHT22;551;48.524;9.056;2022-12-07T09:20:23;5.40;1.00
506;DHT22;551;48.524;9.056;2022-12-07T09:22:49;5.50;1.00
506;DHT22;551;48.524;9.056;2022-12-07T09:25:14;5.50;1.00
506;DHT22;551;48.524;9.056;2022-12-07T09:27:41;5.80;1.00
506;DHT22;551;48.524;9.056;2022-12-07T09:30:07;5.90;1.00
506;DHT22;551;48.524;9.056;2022-12-07T09:32:32;5.90;1.00
506;DHT22;551;48.524;9.056;2022-12-07T09:34:58;6.10;1.00
506;DHT22;551;48.524;9.056;2022-12-07T09:37:24;5.80;1.00
506;DHT22;551;48.524;9.056;2022-12-07T09:39:49;6.00;1.00
506;DHT22;551;48.524;9.056;2022-12-07T09:42:35;6.30;1.00
506;DHT22;551;48.524;9.056;2022-12-07T09:45:04;6.40;1.00
506;DHT22;551;48.524;9.056;2022-12-07T09:47:30;6.40;1.00
506;DHT22;551;48.524;9.056;2022-12-07T09:50:05;6.40;1.00
506;DHT22;551;48.524;9.056;2022-12-07T09:52:32;6.20;1.00
506;DHT22;551;48.524;9.056;2022-12-07T09:54:57;6.40;1.00
506;DHT22;551;48.524;9.056;2022-12-07T09:57:32;6.40;1.00
506;DHT22;551;48.524;9.056;2022-12-07T10:00:06;6.40;1.00
506;DHT22;551;48.524;9.056;2022-12-07T10:05:04;6.60;1.00
506;DHT22;551;48.524;9.056;2022-12-07T10:07:30;6.60;1.00
506;DHT22;551;48.524;9.056;2022-12-07T10:09:55;6.80;1.00
506;DHT22;551;48.524;9.056;2022-12-07T10:12:21;6.70;1.00
506;DHT22;551;48.524;9.056;2022-12-07T10:15:04;6.70;1.00
506;DHT22;551;48.524;9.056;2022-12-07T10:17:35;6.60;1.00
506;DHT22;551;48.524;9.056;2022-12-07T10:20:26;6.70;1.00
506;DHT22;551;48.524;9.056;2022-12-07T10:23:03;7.00;1.00
506;DHT22;551;48.524;9.056;2022-12-07T10:25:33;6.90;1.00
506;DHT22;551;48.524;9.056;2022-12-07T10:35:54;7.10;1.00
506;DHT22;551;48.524;9.056;2022-12-07T10:38:20;7.00;1.00
506;DHT22;551;48.524;9.056;2022-12-07T10:40:45;6.90;1.00
506;DHT22;551;48.524;9.056;2022-12-07T10:48:45;6.80;1.00
506;DHT22;551;48.524;9.056;2022-12-07T10:51:20;6.70;1.00
506;DHT22;551;48.524;9.056;2022-12-07T10:59:52;6.70;1.00
506;DHT22;551;48.524;9.056;2022-12-07T11:02:25;6.80;1.00
506;DHT22;551;48.524;9.056;2022-12-07T11:05:17;7.00;1.00
506;DHT22;551;48.524;9.056;2022-12-07T11:11:13;7.20;1.00
506;DHT22;551;48.524;9.056;2022-12-07T11:19:22;7.10;1.00
506;DHT22;551;48.524;9.056;2022-12-07T11:21:55;7.30;1.00
506;DHT22;551;48.524;9.056;2022-12-07T11:27:41;7.10;1.00
506;DHT22;551;48.524;9.056;2022-12-07T11:30:18;7.00;1.00
506;DHT22;551;48.524;9.056;2022-12-07T11:36:17;7.10;1.00
506;DHT22;551;48.524;9.056;2022-12-07T11:38:56;7.10;1.00
506;DHT22;551;48.524;9.056;2022-12-07T11:41:35;7.10;1.00
506;DHT22;551;48.524;9.056;2022-12-07T11:44:07;7.20;1.00
506;DHT22;551;48.524;9.056;2022-12-07T11:49:17;7.40;1.00
506;DHT22;551;48.524;9.056;2022-12-07T11:51:57;7.50;1.00
506;DHT22;551;48.524;9.056;2022-12-07T11:54:32;7.50;1.00
506;DHT22;551;48.524;9.056;2022-12-07T11:57:04;7.50;1.00
506;DHT22;551;48.524;9.056;2022-12-07T11:59:39;7.40;1.00
506;DHT22;551;48.524;9.056;2022-12-07T12:02:22;7.50;1.00
506;DHT22;551;48.524;9.056;2022-12-07T12:05:15;7.40;1.00
506;DHT22;551;48.524;9.056;2022-12-07T12:07:43;7.30;1.00
506;DHT22;551;48.524;9.056;2022-12-07T12:10:27;7.40;1.00
506;DHT22;551;48.524;9.056;2022-12-07T12:19:33;7.40;1.00
506;DHT22;551;48.524;9.056;2022-12-07T12:24:40;7.50;1.00
506;DHT22;551;48.524;9.056;2022-12-07T12:27:15;7.30;1.00
506;DHT22;551;48.524;9.056;2022-12-07T12:29:43;7.20;1.00
506;DHT22;551;48.524;9.056;2022-12-07T12:32:18;7.20;1.00
506;DHT22;551;48.524;9.056;2022-12-07T12:34:58;7.40;1.00
506;DHT22;551;48.524;9.056;2022-12-07T12:42:46;7.20;1.00
506;DHT22;551;48.524;9.056;2022-12-07T12:47:59;7.30;1.00
506;DHT22;551;48.524;9.056;2022-12-07T12:50:35;7.60;1.00
506;DHT22;551;48.524;9.056;2022-12-07T12:55:54;7.30;1.00
506;DHT22;551;48.524;9.056;2022-12-07T12:58:30;7.20;1.00
506;DHT22;551;48.524;9.056;2022-12-07T13:03:59;7.20;1.00
506;DHT22;551;48.524;9.056;2022-12-07T13:08:52;7.00;1.00
506;DHT22;551;48.524;9.056;2022-12-07T13:11:28;7.00;1.00
506;DHT22;551;48.524;9.056;2022-12-07T13:16:58;7.10;1.00
506;DHT22;551;48.524;9.056;2022-12-07T13:25:03;7.30;1.00
506;DHT22;551;48.524;9.056;2022-12-07T13:27:31;7.30;1.00
506;DHT22;551;48.524;9.056;2022-12-07T13:29:58;7.20;1.00
506;DHT22;551;48.524;9.056;2022-12-07T13:32:26;7.10;1.00
506;DHT22;551;48.524;9.056;2022-12-07T13:34:52;7.20;1.00
506;DHT22;551;48.524;9.056;2022-12-07T13:37:27;7.00;1.00
506;DHT22;551;48.524;9.056;2022-12-07T13:39:55;7.00;1.00
506;DHT22;551;48.524;9.056;2022-12-07T13:44:55;7.00;1.00
506;DHT22;551;48.524;9.056;2022-12-07T13:47:44;6.90;1.00
506;DHT22;551;48.524;9.056;2022-12-07T13:50:24;6.90;1.00
506;DHT22;551;48.524;9.056;2022-12-07T13:52:50;6.90;1.00
506;DHT22;551;48.524;9.056;2022-12-07T13:55:16;6.90;1.00
506;DHT22;551;48.524;9.056;2022-12-07T13:57:44;6.80;1.00
506;DHT22;551;48.524;9.056;2022-12-07T14:00:20;6.90;1.00
506;DHT22;551;48.524;9.056;2022-12-07T14:03:20;6.80;1.00
506;DHT22;551;48.524;9.056;2022-12-07T14:08:33;6.70;1.00
506;DHT22;551;48.524;9.056;2022-12-07T14:10:59;6.70;1.00
506;DHT22;551;48.524;9.056;2022-12-07T14:13:40;6.70;1.00
506;DHT22;551;48.524;9.056;2022-12-07T14:16:32;6.70;1.00
506;DHT22;551;48.524;9.056;2022-12-07T14:18:59;6.80;1.00
506;DHT22;551;48.524;9.056;2022-12-07T14:21:27;6.90;1.00
506;DHT22;551;48.524;9.056;2022-12-07T14:24:22;6.90;1.00
506;DHT22;551;48.524;9.056;2022-12-07T14:26:50;6.80;1.00
506;DHT22;551;48.524;9.056;2022-12-07T14:31:51;6.90;1.00
506;DHT22;551;48.524;9.056;2022-12-07T14:34:19;6.80;1.00
506;DHT22;551;48.524;9.056;2022-12-07T14:36:44;6.80;1.00
506;DHT22;551;48.524;9.056;2022-12-07T14:39:10;6.70;1.00
506;DHT22;551;48.524;9.056;2022-12-07T14:41:35;6.70;1.00
506;DHT22;551;48.524;9.056;2022-12-07T14:44:17;6.70;1.00
506;DHT22;551;48.524;9.056;2022-12-07T14:46:43;6.70;1.00
506;DHT22;551;48.524;9.056;2022-12-07T14:49:09;6.70;1.00
506;DHT22;551;48.524;9.056;2022-12-07T14:51:36;6.60;1.00
506;DHT22;551;48.524;9.056;2022-12-07T14:54:05;6.60;1.00
506;DHT22;551;48.524;9.056;2022-12-07T14:56:31;6.70;1.00
506;DHT22;551;48.524;9.056;2022-12-07T14:58:57;6.70;1.00
506;DHT22;551;48.524;9.056;2022-12-07T15:01:22;6.70;1.00
506;DHT22;551;48.524;9.056;2022-12-07T15:03:48;6.60;1.00
506;DHT22;551;48.524;9.056;2022-12-07T15:06:16;6.60;1.00
506;DHT22;551;48.524;9.056;2022-12-07T15:08:42;6.70;1.00
506;DHT22;551;48.524;9.056;2022-12-07T15:11:13;6.70;1.00
506;DHT22;551;48.524;9.056;2022-12-07T15:13:39;6.50;1.00
506;DHT22;551;48.524;9.056;2022-12-07T15:16:23;6.50;1.00
506;DHT22;551;48.524;9.056;2022-12-07T15:18:48;6.50;1.00
506;DHT22;551;48.524;9.056;2022-12-07T15:21:15;6.40;1.00
506;DHT22;551;48.524;9.056;2022-12-07T15:23:40;6.40;1.00
506;DHT22;551;48.524;9.056;2022-12-07T15:26:06;6.40;1.00
506;DHT22;551;48.524;9.056;2022-12-07T15:28:33;6.40;1.00
506;DHT22;551;48.524;9.056;2022-12-07T15:30:59;6.40;1.00
506;DHT22;551;48.524;9.056;2022-12-07T15:33:24;6.30;1.00
506;DHT22;551;48.524;9.056;2022-12-07T15:35:50;6.30;1.00
506;DHT22;551;48.524;9.056;2022-12-07T15:38:15;6.20;1.00
506;DHT22;551;48.524;9.056;2022-12-07T15:40:41;6.10;1.00
506;DHT22;551;48.524;9.056;2022-12-07T15:43:09;6.10;1.00
506;DHT22;551;48.524;9.056;2022-12-07T15:45:54;6.10;1.00
506;DHT22;551;48.524;9.056;2022-12-07T15:48:20;6.10;1.00
506;DHT22;551;48.524;9.056;2022-12-07T15:50:45;6.10;1.00
506;DHT22;551;48.524;9.056;2022-12-07T15:53:11;6.10;1.00
506;DHT22;551;48.524;9.056;2022-12-07T15:55:39;6.10;1.00
506;DHT22;551;48.524;9.056;2022-12-07T15:58:05;6.10;1.00
506;DHT22;551;48.524;9.056;2022-12-07T16:00:31;6.10;1.00
506;DHT22;551;48.524;9.056;2022-12-07T16:02:56;6.10;1.00
506;DHT22;551;48.524;9.056;2022-12-07T16:05:22;6.10;1.00
506;DHT22;551;48.524;9.056;2022-12-07T16:07:47;6.00;1.00
506;DHT22;551;48.524;9.056;2022-12-07T16:10:13;5.90;1.00
506;DHT22;551;48.524;9.056;2022-12-07T16:12:38;6.00;1.00
506;DHT22;551;48.524;9.056;2022-12-07T16:15:04;6.00;1.00
506;DHT22;551;48.524;9.056;2022-12-07T16:17:30;6.00;1.00
506;DHT22;551;48.524;9.056;2022-12-07T16:19:55;6.00;1.00
506;DHT22;551;48.524;9.056;2022-12-07T16:22:22;6.10;1.00
506;DHT22;551;48.524;9.056;2022-12-07T16:24:48;6.00;1.00
506;DHT22;551;48.524;9.056;2022-12-07T16:27:14;6.00;1.00
506;DHT22;551;48.524;9.056;2022-12-07T16:29:39;6.00;1.00
506;DHT22;551;48.524;9.056;2022-12-07T16:32:05;6.00;1.00
506;DHT22;551;48.524;9.056;2022-12-07T16:34:30;5.90;1.00
506;DHT22;551;48.524;9.056;2022-12-07T16:36:56;5.80;1.00
506;DHT22;551;48.524;9.056;2022-12-07T16:39:21;5.80;1.00
506;DHT22;551;48.524;9.056;2022-12-07T16:41:47;5.80;1.00
506;DHT22;551;48.524;9.056;2022-12-07T16:44:12;5.70;1.00
506;DHT22;551;48.524;9.056;2022-12-07T16:46:39;5.70;1.00
506;DHT22;551;48.524;9.056;2022-12-07T16:49:04;5.70;1.00
506;DHT22;551;48.524;9.056;2022-12-07T16:51:30;5.60;1.00
506;DHT22;551;48.524;9.056;2022-12-07T16:53:56;5.60;1.00
506;DHT22;551;48.524;9.056;2022-12-07T16:56:22;5.50;1.00
506;DHT22;551;48.524;9.056;2022-12-07T16:58:47;5.60;1.00
506;DHT22;551;48.524;9.056;2022-12-07T17:01:19;5.60;1.00
506;DHT22;551;48.524;9.056;2022-12-07T17:03:45;5.60;1.00
506;DHT22;551;48.524;9.056;2022-12-07T17:06:20;5.60;1.00
506;DHT22;551;48.524;9.056;2022-12-07T17:08:46;5.60;1.00
506;DHT22;551;48.524;9.056;2022-12-07T17:11:23;5.60;1.00
506;DHT22;551;48.524;9.056;2022-12-07T17:13:49;5.60;1.00
506;DHT22;551;48.524;9.056;2022-12-07T17:16:41;5.60;1.00
506;DHT22;551;48.524;9.056;2022-12-07T17:19:08;5.50;1.00
506;DHT22;551;48.524;9.056;2022-12-07T17:21:37;5.50;1.00
506;DHT22;551;48.524;9.056;2022-12-07T17:24:04;5.50;1.00
506;DHT22;551;48.524;9.056;2022-12-07T17:26:30;5.40;1.00
506;DHT22;551;48.524;9.056;2022-12-07T17:28:57;5.40;1.00
506;DHT22;551;48.524;9.056;2022-12-07T17:31:23;5.40;1.00
506;DHT22;551;48.524;9.056;2022-12-07T17:33:49;5.30;1.00
506;DHT22;551;48.524;9.056;2022-12-07T17:36:26;5.30;1.00
506;DHT22;551;48.524;9.056;2022-12-07T17:38:53;5.20;1.00
506;DHT22;551;48.524;9.056;2022-12-07T17:41:20;5.10;1.00
506;DHT22;551;48.524;9.056;2022-12-07T17:44:07;5.10;1.00
506;DHT22;551;48.524;9.056;2022-12-07T17:46:36;5.10;1.00
506;DHT22;551;48.524;9.056;2022-12-07T17:49:03;5.00;1.00
506;DHT22;551;48.524;9.056;2022-12-07T17:51:29;5.00;1.00
506;DHT22;551;48.524;9.056;2022-12-07T17:54:13;5.00;1.00
506;DHT22;551;48.524;9.056;2022-12-07T17:56:39;5.00;1.00
506;DHT22;551;48.524;9.056;2022-12-07T17:59:05;4.90;1.00
506;DHT22;551;48.524;9.056;2022-12-07T18:01:31;4.90;1.00
506;DHT22;551;48.524;9.056;2022-12-07T18:03:56;4.80;1.00
506;DHT22;551;48.524;9.056;2022-12-07T18:06:22;4.80;1.00
506;DHT22;551;48.524;9.056;2022-12-07T18:08:48;4.70;1.00
506;DHT22;551;48.524;9.056;2022-12-07T18:11:13;4.60;1.00
506;DHT22;551;48.524;9.056;2022-12-07T18:13:39;4.50;1.00
506;DHT22;551;48.524;9.056;2022-12-07T18:16:07;4.40;1.00
506;DHT22;551;48.524;9.056;2022-12-07T18:18:34;4.40;1.00
506;DHT22;551;48.524;9.056;2022-12-07T18:21:06;4.30;1.00
506;DHT22;551;48.524;9.056;2022-12-07T18:23:31;4.30;1.00
506;DHT22;551;48.524;9.056;2022-12-07T18:25:59;4.20;1.00
506;DHT22;551;48.524;9.056;2022-12-07T18:28:25;4.20;1.00
506;DHT22;551;48.524;9.056;2022-12-07T18:30:50;4.20;1.00
506;DHT22;551;48.524;9.056;2022-12-07T18:33:25;4.20;1.00
506;DHT22;551;48.524;9.056;2022-12-07T18:35:51;4.30;1.00
506;DHT22;551;48.524;9.056;2022-12-07T18:38:17;4.30;1.00
506;DHT22;551;48.524;9.056;2022-12-07T18:40:44;4.30;1.00
506;DHT22;551;48.524;9.056;2022-12-07T18:43:10;4.40;1.00
506;DHT22;551;48.524;9.056;2022-12-07T18:45:39;4.40;1.00
506;DHT22;551;48.524;9.056;2022-12-07T18:48:06;4.40;1.00
506;DHT22;551;48.524;9.056;2022-12-07T18:50:32;4.40;1.00
506;DHT22;551;48.524;9.056;2022-12-07T18:52:58;4.50;1.00
506;DHT22;551;48.524;9.056;2022-12-07T18:55:25;4.50;1.00
506;DHT22;551;48.524;9.056;2022-12-07T18:57:51;4.60;1.00
506;DHT22;551;48.524;9.056;2022-12-07T19:00:18;4.60;1.00
506;DHT22;551;48.524;9.056;2022-12-07T19:02:43;4.60;1.00
506;DHT22;551;48.524;9.056;2022-12-07T19:05:09;4.60;1.00
506;DHT22;551;48.524;9.056;2022-12-07T19:07:35;4.50;1.00
506;DHT22;551;48.524;9.056;2022-12-07T19:10:01;4.40;1.00
506;DHT22;551;48.524;9.056;2022-12-07T19:12:27;4.40;1.00